Delta Fantasy — WDF8698 — position and weather

sailwx.info

Track history (hours):
 
Tides and Currents Weather Stations Pressure Air Temp Water Temp Dewpoint Dewpoint Depression Visibility Wind Speed Wind Dir Waves Ship Positions

Delta Fantasy

Owner: Crosby Marine Transportation LLC, Golden Meadow, LA. More information available from US FCC via Universal Licensing System and Coast Guard Vessel Documentation Center.

Last reported at 2018-Jan-18 15:00 UTC. Time now 2018-Jan-18 15:23 UTC.
Position N 40°34' W 073°56'.

Length 32 m; draft 4 m.

Type: Tug. MMSI: 367497610.

Date/timePositionNaut miles runAvg speedWind from/ knotsBaromVisibWave heightAir tempDewpointWater temp
2018-Jan-18 15:00N 40°34' W 073°56'4 7.8
2018-Jan-18 14:30N 40°34' W 074°01'4 7.7
2018-Jan-18 14:00N 40°38' W 074°03'4 7.4
2018-Jan-18 13:30N 40°39' W 074°08'4 7.0
2018-Jan-18 12:59N 40°37' W 074°12'6 0.4
2018-Jan-17 23:38N 40°32' W 074°15'  
2018-Jan-11 19:58N 40°46' W 073°57'4 8.4
2018-Jan-11 19:30N 40°42' W 073°60'4 8.2
2018-Jan-11 19:01N 40°40' W 074°04'4 7.2
2018-Jan-11 18:28N 40°39' W 074°09'3 0.2
2018-Jan-11 04:26N 40°39' W 074°05'4 9.6
2018-Jan-11 04:01N 40°41' W 074°01'5 9.5
2018-Jan-11 03:30N 40°45' W 073°58'0 0.0
2018-Jan-10 10:33N 40°46' W 073°57'0 6.5
2018-Jan-10 10:30N 40°46' W 073°57'3 7.0
2018-Jan-10 10:01N 40°42' W 073°59'4 8.2
2018-Jan-10 09:30N 40°39' W 074°02'10 0.7
2018-Jan-09 18:58N 40°35' W 073°50'3 5.7
2018-Jan-09 18:21N 40°34' W 073°54'3 7.6
2018-Jan-09 17:57N 40°34' W 073°58'3 7.1
2018-Jan-09 17:28N 40°36' W 074°02'4 8.0
2018-Jan-09 17:01N 40°39' W 074°04'4 7.4
2018-Jan-09 16:27N 40°39' W 074°10'1 0.1
2018-Jan-08 19:58N 40°39' W 074°11'4 0.8
2018-Jan-08 15:42N 40°39' W 074°07'0 0.2
2018-Jan-08 15:20N 40°39' W 074°07'2 7.6
2018-Jan-08 15:00N 40°39' W 074°10'  
Track history (hours):
 
Tides and Currents Weather Stations Pressure Air Temp Water Temp Dewpoint Dewpoint Depression Visibility Wind Speed Wind Dir Waves Ship Positions

Delta Fantasy

Owner: Crosby Marine Transportation LLC, Golden Meadow, LA. More information available from US FCC via Universal Licensing System and Coast Guard Vessel Documentation Center.

Last reported at 2018-Jan-18 15:00 UTC. Time now 2018-Jan-18 15:23 UTC.
Position N 40°34' W 073°56'.

Length 32 m; draft 4 m.

Type: Tug. MMSI: 367497610.

Date/timePositionNaut miles runAvg speedWind from/ knotsBaromVisibWave heightAir tempDewpointWater temp
2018-Jan-18 15:00N 40°34' W 073°56'4 7.8
2018-Jan-18 14:30N 40°34' W 074°01'4 7.7
2018-Jan-18 14:00N 40°38' W 074°03'4 7.4
2018-Jan-18 13:30N 40°39' W 074°08'4 7.0
2018-Jan-18 12:59N 40°37' W 074°12'6 0.4
2018-Jan-17 23:38N 40°32' W 074°15'  
2018-Jan-11 19:58N 40°46' W 073°57'4 8.4
2018-Jan-11 19:30N 40°42' W 073°60'4 8.2
2018-Jan-11 19:01N 40°40' W 074°04'4 7.2
2018-Jan-11 18:28N 40°39' W 074°09'3 0.2
2018-Jan-11 04:26N 40°39' W 074°05'4 9.6
2018-Jan-11 04:01N 40°41' W 074°01'5 9.5
2018-Jan-11 03:30N 40°45' W 073°58'0 0.0
2018-Jan-10 10:33N 40°46' W 073°57'0 6.5
2018-Jan-10 10:30N 40°46' W 073°57'3 7.0
2018-Jan-10 10:01N 40°42' W 073°59'4 8.2
2018-Jan-10 09:30N 40°39' W 074°02'10 0.7
2018-Jan-09 18:58N 40°35' W 073°50'3 5.7
2018-Jan-09 18:21N 40°34' W 073°54'3 7.6
2018-Jan-09 17:57N 40°34' W 073°58'3 7.1
2018-Jan-09 17:28N 40°36' W 074°02'4 8.0
2018-Jan-09 17:01N 40°39' W 074°04'4 7.4
2018-Jan-09 16:27N 40°39' W 074°10'1 0.1
2018-Jan-08 19:58N 40°39' W 074°11'4 0.8
2018-Jan-08 15:42N 40°39' W 074°07'0 0.2
2018-Jan-08 15:20N 40°39' W 074°07'2 7.6
2018-Jan-08 15:00N 40°39' W 074°10'  

Dump ship's entire track history